Time;durP1;ratioP1;P1;durP2;ratioP2;P2;SDS_P1;SDS_P2;PMS_P1;PMS_P2;Temp;Humidity;BMP_temperature;BMP_pressure;BME280_temperature;BME280_humidity;BME280_pressure;Samples;Min_cycle;Max_cycle;Signal;HPM_P1;HPM_P2
2024/01/24 00:00:06;;;;;;;1.87;0.43;;;;;;;;;;5113498;28;20276;-79
2024/01/24 00:02:33;;;;;;;1.93;0.53;;;;;;;;;;5112970;28;20597;-79
2024/01/24 00:05:00;;;;;;;0.83;0.33;;;;;;;;;;5113306;28;20296;-80
2024/01/24 00:07:29;;;;;;;0.90;0.30;;;;;;;;;;5113355;28;20289;-79
2024/01/24 00:09:56;;;;;;;1.57;0.50;;;;;;;;;;5112846;28;20194;-79
2024/01/24 00:12:24;;;;;;;2.73;0.60;;;;;;;;;;5112615;28;20225;-80
2024/01/24 00:14:51;;;;;;;1.23;0.40;;;;;;;;;;5113047;28;20246;-80
2024/01/24 00:17:18;;;;;;;2.87;0.60;;;;;;;;;;5111932;28;20225;-79
2024/01/24 00:19:45;;;;;;;1.40;0.40;;;;;;;;;;5112871;27;20201;-79
2024/01/24 00:22:14;;;;;;;0.80;0.40;;;;;;;;;;5113043;28;20608;-80
2024/01/24 00:24:42;;;;;;;2.93;0.63;;;;;;;;;;5112978;28;20194;-80
2024/01/24 00:27:11;;;;;;;1.80;0.80;;;;;;;;;;5112452;28;20731;-79
2024/01/24 00:29:38;;;;;;;1.40;0.50;;;;;;;;;;5113235;28;20204;-79
2024/01/24 00:32:05;;;;;;;1.90;0.43;;;;;;;;;;5112764;28;20575;-79
2024/01/24 00:34:32;;;;;;;1.03;0.40;;;;;;;;;;5111696;28;20198;-80
2024/01/24 00:36:59;;;;;;;1.33;0.40;;;;;;;;;;5112632;28;20557;-79
2024/01/24 00:39:27;;;;;;;1.37;0.50;;;;;;;;;;5112364;28;20635;-79
2024/01/24 00:41:58;;;;;;;2.40;0.57;;;;;;;;;;5111913;28;20695;-79
2024/01/24 00:44:25;;;;;;;2.30;0.67;;;;;;;;;;5112717;28;20250;-79
2024/01/24 00:46:53;;;;;;;2.13;0.60;;;;;;;;;;5112664;28;20194;-79
2024/01/24 00:49:20;;;;;;;0.70;0.40;;;;;;;;;;5112596;28;20653;-79
2024/01/24 00:51:47;;;;;;;1.80;0.40;;;;;;;;;;5112747;28;20190;-79
2024/01/24 00:54:14;;;;;;;2.40;0.47;;;;;;;;;;5112290;28;20597;-78
2024/01/24 00:56:42;;;;;;;1.00;0.40;;;;;;;;;;5111772;28;20200;-79
2024/01/24 00:59:10;;;;;;;0.93;0.47;;;;;;;;;;5112448;28;20190;-79
2024/01/24 01:01:37;;;;;;;1.37;0.50;;;;;;;;;;5112084;28;20200;-79
2024/01/24 01:04:05;;;;;;;1.87;0.70;;;;;;;;;;5111862;28;20674;-80
2024/01/24 01:06:32;;;;;;;0.77;0.40;;;;;;;;;;5111749;28;20202;-79
2024/01/24 01:09:01;;;;;;;1.53;0.50;;;;;;;;;;5111754;28;20204;-79
2024/01/24 01:11:28;;;;;;;1.53;0.50;;;;;;;;;;5111885;28;20689;-79
2024/01/24 01:13:55;;;;;;;4.77;0.50;;;;;;;;;;5111660;28;20238;-78
2024/01/24 01:16:24;;;;;;;2.20;0.57;;;;;;;;;;5111544;28;20202;-80
2024/01/24 01:18:51;;;;;;;2.47;0.73;;;;;;;;;;5112124;28;20940;-80
2024/01/24 01:21:18;;;;;;;1.33;0.60;;;;;;;;;;5111700;28;20284;-79
2024/01/24 01:23:46;;;;;;;3.23;0.90;;;;;;;;;;5112033;28;20725;-79
2024/01/24 01:26:13;;;;;;;1.63;0.50;;;;;;;;;;5111399;28;20225;-80
2024/01/24 01:28:40;;;;;;;3.73;0.70;;;;;;;;;;5111754;28;20691;-79
2024/01/24 01:31:07;;;;;;;3.07;0.70;;;;;;;;;;5111721;28;20284;-79
2024/01/24 01:33:35;;;;;;;1.80;0.70;;;;;;;;;;5111612;28;20236;-79
2024/01/24 01:36:03;;;;;;;3.23;0.73;;;;;;;;;;5111582;28;20563;-79
2024/01/24 01:38:30;;;;;;;4.63;0.80;;;;;;;;;;5111499;28;20246;-79
2024/01/24 01:40:57;;;;;;;1.97;0.70;;;;;;;;;;5111992;28;20189;-79
2024/01/24 01:43:25;;;;;;;3.00;0.80;;;;;;;;;;5111740;28;20285;-79
2024/01/24 01:45:52;;;;;;;3.70;0.73;;;;;;;;;;5113896;28;20205;-80
2024/01/24 01:48:20;;;;;;;2.07;0.60;;;;;;;;;;5116031;28;20280;-80
2024/01/24 01:50:48;;;;;;;3.57;0.90;;;;;;;;;;5116187;28;20280;-79
2024/01/24 01:53:16;;;;;;;3.17;0.70;;;;;;;;;;5115621;27;20308;-79
2024/01/24 01:55:44;;;;;;;4.07;0.90;;;;;;;;;;5115937;28;20197;-79
2024/01/24 01:58:11;;;;;;;4.30;0.77;;;;;;;;;;5116127;28;20208;-79
2024/01/24 02:00:38;;;;;;;4.23;0.90;;;;;;;;;;5115619;28;20239;-79
2024/01/24 02:03:05;;;;;;;2.53;0.87;;;;;;;;;;5115308;28;20236;-80
2024/01/24 02:05:33;;;;;;;4.63;0.93;;;;;;;;;;5115321;28;20567;-80
2024/01/24 02:08:01;;;;;;;6.10;1.17;;;;;;;;;;5115113;28;20658;-79
2024/01/24 02:10:28;;;;;;;4.40;0.90;;;;;;;;;;5115659;28;20562;-79
2024/01/24 02:12:55;;;;;;;3.57;0.80;;;;;;;;;;5115610;28;20268;-79
2024/01/24 02:15:22;;;;;;;6.17;0.90;;;;;;;;;;5115062;28;20296;-79
2024/01/24 02:17:50;;;;;;;2.70;1.00;;;;;;;;;;5115236;27;20206;-80
2024/01/24 02:20:18;;;;;;;5.13;1.33;;;;;;;;;;5115214;27;20244;-79
2024/01/24 02:22:45;;;;;;;6.10;1.20;;;;;;;;;;5114978;28;20571;-79
2024/01/24 02:25:14;;;;;;;3.87;1.20;;;;;;;;;;5115036;28;20628;-79
2024/01/24 02:27:41;;;;;;;4.90;1.43;;;;;;;;;;5114959;28;20275;-78
2024/01/24 02:30:09;;;;;;;4.63;1.57;;;;;;;;;;5115033;27;20237;-79
2024/01/24 02:32:36;;;;;;;7.87;1.20;;;;;;;;;;5114936;28;20294;-80
2024/01/24 02:35:04;;;;;;;6.90;1.27;;;;;;;;;;5114531;28;20229;-78
2024/01/24 02:37:31;;;;;;;4.77;1.27;;;;;;;;;;5114416;28;20579;-79
2024/01/24 02:39:58;;;;;;;7.20;1.30;;;;;;;;;;5114700;28;20675;-79
2024/01/24 02:42:27;;;;;;;7.93;1.33;;;;;;;;;;5114802;28;20284;-79
2024/01/24 02:44:54;;;;;;;7.97;1.63;;;;;;;;;;5114918;28;20243;-78
2024/01/24 02:47:22;;;;;;;5.80;1.43;;;;;;;;;;5114631;28;20190;-79
2024/01/24 02:49:49;;;;;;;7.30;1.93;;;;;;;;;;5114410;28;20201;-79
2024/01/24 02:52:17;;;;;;;8.00;1.37;;;;;;;;;;5113911;28;20194;-79
2024/01/24 02:54:44;;;;;;;7.60;1.20;;;;;;;;;;5114054;28;20225;-79
2024/01/24 02:57:11;;;;;;;6.90;1.27;;;;;;;;;;5113309;28;20297;-79
2024/01/24 02:59:38;;;;;;;6.83;1.10;;;;;;;;;;5105086;28;20285;-78
2024/01/24 03:02:06;;;;;;;10.97;2.00;;;;;;;;;;5102821;28;20577;-79
2024/01/24 03:04:33;;;;;;;11.17;1.50;;;;;;;;;;5093561;28;20293;-79
2024/01/24 03:07:00;;;;;;;7.53;1.53;;;;;;;;;;5093076;28;20233;-79
2024/01/24 03:09:27;;;;;;;3.67;1.07;;;;;;;;;;5093923;28;20630;-79
2024/01/24 03:11:54;;;;;;;6.83;1.40;;;;;;;;;;5094147;28;20666;-80
2024/01/24 03:14:21;;;;;;;6.80;1.10;;;;;;;;;;5093251;28;20795;-79
2024/01/24 03:16:50;;;;;;;7.23;1.50;;;;;;;;;;5093451;28;20194;-79
2024/01/24 03:19:17;;;;;;;7.03;1.50;;;;;;;;;;5096565;28;20289;-79
2024/01/24 03:21:45;;;;;;;6.13;1.47;;;;;;;;;;5102741;28;20198;-79
2024/01/24 03:24:12;;;;;;;6.67;1.40;;;;;;;;;;5093129;28;20190;-79
2024/01/24 03:26:39;;;;;;;6.97;1.50;;;;;;;;;;5104882;28;20296;-79
2024/01/24 03:29:06;;;;;;;7.90;1.40;;;;;;;;;;5093775;28;20256;-80
2024/01/24 03:31:34;;;;;;;6.10;1.37;;;;;;;;;;5093491;28;20665;-79
2024/01/24 03:34:02;;;;;;;6.07;1.47;;;;;;;;;;5093013;28;20321;-79
2024/01/24 03:36:29;;;;;;;9.40;1.47;;;;;;;;;;5098751;28;20221;-78
2024/01/24 03:38:56;;;;;;;9.10;1.77;;;;;;;;;;5113900;28;20190;-79
2024/01/24 03:41:24;;;;;;;7.20;1.50;;;;;;;;;;5113736;28;20221;-79
2024/01/24 03:43:51;;;;;;;10.27;2.10;;;;;;;;;;5113798;28;20221;-79
2024/01/24 03:46:19;;;;;;;8.23;1.60;;;;;;;;;;5113662;28;20198;-79
2024/01/24 03:48:47;;;;;;;7.20;1.43;;;;;;;;;;5113491;28;20201;-79
2024/01/24 03:51:15;;;;;;;9.13;1.80;;;;;;;;;;5113035;28;20632;-80
2024/01/24 03:53:42;;;;;;;7.27;1.60;;;;;;;;;;5113366;28;20225;-79
2024/01/24 03:56:09;;;;;;;10.47;1.60;;;;;;;;;;5113375;28;20285;-79
2024/01/24 03:58:37;;;;;;;10.10;1.80;;;;;;;;;;5112808;28;20225;-79
2024/01/24 04:01:04;;;;;;;8.50;1.83;;;;;;;;;;5113274;28;20216;-80
2024/01/24 04:03:31;;;;;;;7.27;1.63;;;;;;;;;;5112643;28;20371;-80
2024/01/24 04:05:59;;;;;;;6.90;1.37;;;;;;;;;;5113083;28;20198;-80
2024/01/24 04:08:27;;;;;;;9.43;1.87;;;;;;;;;;5112938;28;20280;-80
2024/01/24 04:10:54;;;;;;;5.40;1.43;;;;;;;;;;5113181;27;20284;-79
2024/01/24 04:13:21;;;;;;;7.93;1.13;;;;;;;;;;5112441;28;20713;-79
2024/01/24 04:15:49;;;;;;;12.10;1.70;;;;;;;;;;5112522;28;20725;-79
2024/01/24 04:18:16;;;;;;;10.43;1.67;;;;;;;;;;5112561;28;20213;-79
2024/01/24 04:20:43;;;;;;;6.88;1.67;;;;;;;;;;5112722;28;20288;-78
2024/01/24 04:23:10;;;;;;;6.13;1.20;;;;;;;;;;5112589;28;20221;-79
2024/01/24 04:25:39;;;;;;;5.97;1.30;;;;;;;;;;5112347;27;20229;-79
2024/01/24 04:28:06;;;;;;;7.28;1.90;;;;;;;;;;5113045;28;20217;-79
2024/01/24 04:30:33;;;;;;;10.33;1.53;;;;;;;;;;5112570;28;20285;-79
2024/01/24 04:33:00;;;;;;;8.02;1.90;;;;;;;;;;5112399;28;20684;-79
2024/01/24 04:35:28;;;;;;;4.80;1.20;;;;;;;;;;5112320;28;20236;-80
2024/01/24 04:37:55;;;;;;;5.33;1.20;;;;;;;;;;5112180;28;20289;-79
2024/01/24 04:40:22;;;;;;;6.97;1.70;;;;;;;;;;5112991;28;20821;-79
2024/01/24 04:42:51;;;;;;;7.05;1.58;;;;;;;;;;5112493;28;20212;-80
2024/01/24 04:45:18;;;;;;;7.23;1.40;;;;;;;;;;5112300;28;20248;-79
2024/01/24 04:47:45;;;;;;;8.40;1.70;;;;;;;;;;5112254;28;20221;-79
2024/01/24 04:50:13;;;;;;;5.27;1.30;;;;;;;;;;5112601;28;20197;-79
2024/01/24 04:52:40;;;;;;;8.10;1.30;;;;;;;;;;5112065;28;20201;-79
2024/01/24 04:55:11;;;;;;;5.80;1.20;;;;;;;;;;5112102;28;20321;-79
2024/01/24 04:57:39;;;;;;;8.67;1.57;;;;;;;;;;5112179;28;20201;-79
2024/01/24 05:00:08;;;;;;;5.70;1.50;;;;;;;;;;5111944;28;20190;-80
2024/01/24 05:02:36;;;;;;;6.50;1.57;;;;;;;;;;5111856;28;20193;-80
2024/01/24 05:05:06;;;;;;;7.57;1.27;;;;;;;;;;5112270;28;20200;-80
2024/01/24 05:07:33;;;;;;;4.47;1.10;;;;;;;;;;5111554;28;20674;-80
2024/01/24 05:10:00;;;;;;;6.27;1.40;;;;;;;;;;5111972;28;20221;-79
2024/01/24 05:12:27;;;;;;;6.67;1.60;;;;;;;;;;5111814;28;20233;-79
2024/01/24 05:14:55;;;;;;;6.10;1.60;;;;;;;;;;5111736;28;20278;-79
2024/01/24 05:17:23;;;;;;;7.57;1.30;;;;;;;;;;5111912;28;20222;-79
2024/01/24 05:19:50;;;;;;;5.83;1.30;;;;;;;;;;5111570;28;20198;-79
2024/01/24 05:22:18;;;;;;;5.57;1.30;;;;;;;;;;5111755;28;20225;-79
2024/01/24 05:24:45;;;;;;;6.83;1.27;;;;;;;;;;5111851;28;20221;-79
2024/01/24 05:27:12;;;;;;;10.37;1.57;;;;;;;;;;5111520;28;20216;-79
2024/01/24 05:29:39;;;;;;;5.27;1.20;;;;;;;;;;5111814;28;20216;-79
2024/01/24 05:32:06;;;;;;;8.33;1.37;;;;;;;;;;5111646;28;20663;-80
2024/01/24 05:34:35;;;;;;;5.43;1.10;;;;;;;;;;5111234;28;20317;-80
2024/01/24 05:37:02;;;;;;;8.13;1.53;;;;;;;;;;5111667;28;20270;-80
2024/01/24 05:39:29;;;;;;;4.90;1.20;;;;;;;;;;5111614;28;20250;-78
2024/01/24 05:41:57;;;;;;;5.20;1.23;;;;;;;;;;5111175;28;20197;-80
2024/01/24 05:44:24;;;;;;;4.90;1.13;;;;;;;;;;5105521;28;20699;-79
2024/01/24 05:46:51;;;;;;;4.93;1.30;;;;;;;;;;5096335;28;20228;-80
2024/01/24 05:49:19;;;;;;;5.10;1.20;;;;;;;;;;5111563;28;20205;-80
2024/01/24 05:51:47;;;;;;;9.43;1.57;;;;;;;;;;5094107;28;20206;-79
2024/01/24 05:54:15;;;;;;;6.00;1.33;;;;;;;;;;5091432;28;20254;-79
2024/01/24 05:56:42;;;;;;;6.17;1.40;;;;;;;;;;5090374;28;20335;-78
2024/01/24 05:59:09;;;;;;;4.27;1.40;;;;;;;;;;5091135;28;20226;-80
2024/01/24 06:01:37;;;;;;;7.77;1.40;;;;;;;;;;5091221;28;20200;-79
2024/01/24 06:04:04;;;;;;;4.90;1.10;;;;;;;;;;5090950;28;20197;-80
2024/01/24 06:06:31;;;;;;;6.97;1.57;;;;;;;;;;5090837;28;20194;-78
2024/01/24 06:09:00;;;;;;;8.73;1.00;;;;;;;;;;5090911;28;20657;-79
2024/01/24 06:11:27;;;;;;;5.40;0.70;;;;;;;;;;5091128;28;20281;-78
2024/01/24 06:13:54;;;;;;;3.00;0.80;;;;;;;;;;5090755;28;20269;-80
2024/01/24 06:16:21;;;;;;;4.43;0.87;;;;;;;;;;5090431;28;20699;-78
2024/01/24 06:18:49;;;;;;;3.37;0.70;;;;;;;;;;5090851;28;20631;-79
2024/01/24 06:21:16;;;;;;;3.67;0.70;;;;;;;;;;5091188;28;20298;-79
2024/01/24 06:23:43;;;;;;;2.77;0.80;;;;;;;;;;5090811;28;20186;-79
2024/01/24 06:26:11;;;;;;;3.27;0.70;;;;;;;;;;5090735;28;20302;-79
2024/01/24 06:28:39;;;;;;;1.50;0.50;;;;;;;;;;5090256;28;20225;-79
2024/01/24 06:31:06;;;;;;;2.60;0.60;;;;;;;;;;5091969;28;20277;-79
2024/01/24 06:33:33;;;;;;;3.40;0.73;;;;;;;;;;5097004;28;20293;-79
2024/01/24 06:36:00;;;;;;;3.07;0.50;;;;;;;;;;5114556;28;20321;-79
2024/01/24 06:38:27;;;;;;;2.77;0.50;;;;;;;;;;5115097;28;20280;-78
2024/01/24 06:40:53;;;;;;;2.60;0.70;;;;;;;;;;5112914;28;20198;-80
2024/01/24 06:43:22;;;;;;;2.77;0.60;;;;;;;;;;5114321;28;20205;-80
2024/01/24 06:45:49;;;;;;;1.27;0.50;;;;;;;;;;5114501;27;20233;-79
2024/01/24 06:48:18;;;;;;;2.50;0.70;;;;;;;;;;5114228;28;20226;-80
2024/01/24 06:50:45;;;;;;;2.97;1.10;;;;;;;;;;5114506;28;20202;-80
2024/01/24 06:53:14;;;;;;;5.67;1.87;;;;;;;;;;5114634;28;20280;-81
2024/01/24 06:55:42;;;;;;;4.90;2.00;;;;;;;;;;5114421;28;20226;-80
2024/01/24 06:58:09;;;;;;;2.67;1.07;;;;;;;;;;5113012;27;20209;-82
2024/01/24 07:00:38;;;;;;;2.20;0.90;;;;;;;;;;5114341;28;20206;-83
2024/01/24 07:03:05;;;;;;;3.27;0.80;;;;;;;;;;5114139;28;20902;-83
2024/01/24 07:05:33;;;;;;;2.30;0.70;;;;;;;;;;5114527;28;20296;-82
2024/01/24 07:08:00;;;;;;;1.60;0.90;;;;;;;;;;5113013;27;20205;-80
2024/01/24 07:10:27;;;;;;;2.47;1.17;;;;;;;;;;5114371;28;20198;-81
2024/01/24 07:12:55;;;;;;;4.50;1.40;;;;;;;;;;5114156;28;20256;-81
2024/01/24 07:15:22;;;;;;;4.13;0.90;;;;;;;;;;5114194;28;20605;-81
2024/01/24 07:17:51;;;;;;;2.60;0.70;;;;;;;;;;5113675;28;20193;-82
2024/01/24 07:20:18;;;;;;;2.83;1.50;;;;;;;;;;5114264;28;20198;-79
2024/01/24 07:22:45;;;;;;;2.20;0.70;;;;;;;;;;5113819;28;20209;-81
2024/01/24 07:25:13;;;;;;;3.33;1.00;;;;;;;;;;5113837;28;20308;-80
2024/01/24 07:27:40;;;;;;;2.77;1.03;;;;;;;;;;5113929;28;20285;-81
2024/01/24 07:30:08;;;;;;;0.73;0.50;;;;;;;;;;5114324;28;20277;-81
2024/01/24 07:32:39;;;;;;;2.60;0.60;;;;;;;;;;5114337;28;20194;-81
2024/01/24 07:35:08;;;;;;;3.17;1.40;;;;;;;;;;5113183;28;20225;-81
2024/01/24 07:37:35;;;;;;;4.67;1.90;;;;;;;;;;5114098;28;20263;-82
2024/01/24 07:40:02;;;;;;;5.73;1.70;;;;;;;;;;5113809;28;20209;-82
2024/01/24 07:42:30;;;;;;;2.30;1.03;;;;;;;;;;5112915;28;20662;-82
2024/01/24 07:44:57;;;;;;;5.10;1.23;;;;;;;;;;5113429;28;20685;-81
2024/01/24 07:47:25;;;;;;;2.20;1.23;;;;;;;;;;5113673;28;20243;-81
2024/01/24 07:49:53;;;;;;;3.27;1.27;;;;;;;;;;5113407;28;20230;-81
2024/01/24 07:52:21;;;;;;;3.30;1.60;;;;;;;;;;5113271;28;20189;-82
2024/01/24 07:54:48;;;;;;;4.27;1.80;;;;;;;;;;5113673;28;20309;-81
2024/01/24 07:57:15;;;;;;;2.83;1.30;;;;;;;;;;5113091;28;20225;-81
2024/01/24 07:59:43;;;;;;;2.90;1.30;;;;;;;;;;5113602;28;20247;-80
2024/01/24 08:02:10;;;;;;;2.80;1.20;;;;;;;;;;5113786;28;20289;-81
2024/01/24 08:04:37;;;;;;;3.47;1.20;;;;;;;;;;5113292;28;20218;-80
2024/01/24 08:07:05;;;;;;;3.93;1.10;;;;;;;;;;5113026;28;20220;-82
2024/01/24 08:09:34;;;;;;;4.47;1.00;;;;;;;;;;5113300;28;20654;-81
2024/01/24 08:12:01;;;;;;;3.47;1.03;;;;;;;;;;5113239;28;20193;-81
2024/01/24 08:14:28;;;;;;;2.90;1.50;;;;;;;;;;5112697;28;20313;-80
2024/01/24 08:17:03;;;;;;;5.03;2.80;;;;;;;;;;5113435;28;20285;-81
2024/01/24 08:19:30;;;;;;;6.07;3.03;;;;;;;;;;5112881;28;20669;-80
2024/01/24 08:21:58;;;;;;;5.03;2.77;;;;;;;;;;5112735;28;20300;-80
2024/01/24 08:24:25;;;;;;;4.07;2.53;;;;;;;;;;5112973;28;20289;-81
2024/01/24 08:26:54;;;;;;;5.07;2.70;;;;;;;;;;5112941;28;20200;-80
2024/01/24 08:29:21;;;;;;;4.73;2.27;;;;;;;;;;5112958;28;20229;-81
2024/01/24 08:31:48;;;;;;;3.10;1.80;;;;;;;;;;5112973;28;20225;-81
2024/01/24 08:34:16;;;;;;;5.47;2.50;;;;;;;;;;5113200;28;20276;-82
2024/01/24 08:36:43;;;;;;;7.50;2.70;;;;;;;;;;5112772;28;20257;-80
2024/01/24 08:39:10;;;;;;;3.77;1.70;;;;;;;;;;5112662;28;20201;-81
2024/01/24 08:41:38;;;;;;;4.30;2.10;;;;;;;;;;5111323;28;20757;-82
2024/01/24 08:44:07;;;;;;;3.10;2.00;;;;;;;;;;5112754;28;20281;-82
2024/01/24 08:46:34;;;;;;;5.07;2.20;;;;;;;;;;5113039;28;20202;-80
2024/01/24 08:49:01;;;;;;;3.83;2.17;;;;;;;;;;5112399;28;20287;-81
2024/01/24 08:51:31;;;;;;;3.77;1.80;;;;;;;;;;5112323;28;20233;-81
2024/01/24 08:53:59;;;;;;;4.53;2.40;;;;;;;;;;5111401;28;20592;-82
2024/01/24 08:56:27;;;;;;;4.87;2.83;;;;;;;;;;5111800;28;20324;-80
2024/01/24 08:58:54;;;;;;;7.40;3.93;;;;;;;;;;5112795;28;20197;-80
2024/01/24 09:01:23;;;;;;;5.00;2.23;;;;;;;;;;5112771;28;20277;-79
2024/01/24 09:03:50;;;;;;;3.43;1.80;;;;;;;;;;5112150;28;20306;-81
2024/01/24 09:06:20;;;;;;;6.50;2.10;;;;;;;;;;5112052;28;20284;-82
2024/01/24 09:08:51;;;;;;;4.07;2.30;;;;;;;;;;5111959;28;20312;-82
2024/01/24 09:11:18;;;;;;;3.83;2.50;;;;;;;;;;5112220;28;20207;-81
2024/01/24 09:13:47;;;;;;;3.93;2.03;;;;;;;;;;5112065;28;20605;-81
2024/01/24 09:16:14;;;;;;;4.40;2.30;;;;;;;;;;5112079;28;20700;-82
2024/01/24 09:18:43;;;;;;;5.30;2.50;;;;;;;;;;5111861;28;20252;-81
2024/01/24 09:21:10;;;;;;;5.47;1.90;;;;;;;;;;5112235;28;20549;-81
2024/01/24 09:23:37;;;;;;;4.43;2.30;;;;;;;;;;5111349;28;20273;-82
2024/01/24 09:26:04;;;;;;;3.87;1.87;;;;;;;;;;5111832;28;20640;-82
2024/01/24 09:28:32;;;;;;;3.73;1.60;;;;;;;;;;5111733;28;20281;-80
2024/01/24 09:30:59;;;;;;;5.33;1.70;;;;;;;;;;5112157;28;20212;-81
2024/01/24 09:33:26;;;;;;;5.53;2.08;;;;;;;;;;5111807;28;20198;-82
2024/01/24 09:35:55;;;;;;;4.80;2.35;;;;;;;;;;5111551;28;20229;-83
2024/01/24 09:38:22;;;;;;;5.28;2.58;;;;;;;;;;5111236;28;20737;-82
2024/01/24 09:40:50;;;;;;;3.90;1.70;;;;;;;;;;5112507;28;20201;-82
2024/01/24 09:43:18;;;;;;;3.25;1.50;;;;;;;;;;5111840;28;20229;-82
2024/01/24 09:45:45;;;;;;;4.30;1.20;;;;;;;;;;5111584;28;20203;-82
2024/01/24 09:48:13;;;;;;;2.25;1.10;;;;;;;;;;5112008;28;20225;-82
2024/01/24 09:50:41;;;;;;;3.13;1.27;;;;;;;;;;5111675;28;20197;-82
2024/01/24 09:53:11;;;;;;;3.55;1.15;;;;;;;;;;5111376;28;20631;-80
2024/01/24 09:55:39;;;;;;;4.63;1.42;;;;;;;;;;5111798;28;20246;-80
2024/01/24 09:58:06;;;;;;;4.70;1.38;;;;;;;;;;5111777;28;20629;-81
2024/01/24 10:00:33;;;;;;;3.88;1.20;;;;;;;;;;5111451;28;20200;-79
2024/01/24 10:03:01;;;;;;;3.35;1.02;;;;;;;;;;5111743;28;20236;-81
2024/01/24 10:05:28;;;;;;;5.68;1.23;;;;;;;;;;5111637;28;20662;-80
2024/01/24 10:07:56;;;;;;;6.57;1.50;;;;;;;;;;5115160;28;20229;-82
2024/01/24 10:10:26;;;;;;;3.08;1.17;;;;;;;;;;5115880;28;20194;-82
2024/01/24 10:12:53;;;;;;;3.65;1.23;;;;;;;;;;5115616;28;20221;-81
2024/01/24 10:15:21;;;;;;;4.50;1.00;;;;;;;;;;5115488;28;20224;-79
2024/01/24 10:17:49;;;;;;;5.38;1.55;;;;;;;;;;5115246;28;20205;-80
2024/01/24 10:20:16;;;;;;;5.28;1.30;;;;;;;;;;5115543;28;20190;-79
2024/01/24 10:22:44;;;;;;;5.90;1.45;;;;;;;;;;5114655;28;20280;-80
2024/01/24 10:25:12;;;;;;;5.28;1.38;;;;;;;;;;5115788;28;20281;-80
2024/01/24 10:27:41;;;;;;;4.78;1.40;;;;;;;;;;5115177;28;20200;-80
2024/01/24 10:30:12;;;;;;;2.97;1.08;;;;;;;;;;5115469;28;20197;-81
2024/01/24 10:32:39;;;;;;;3.72;1.20;;;;;;;;;;5115058;28;20289;-80
2024/01/24 10:35:06;;;;;;;7.90;1.45;;;;;;;;;;5114794;28;20208;-81
2024/01/24 10:37:33;;;;;;;3.15;1.10;;;;;;;;;;5115096;28;20336;-80
2024/01/24 10:40:04;;;;;;;3.85;1.40;;;;;;;;;;5115085;28;20204;-80
2024/01/24 10:42:36;;;;;;;4.45;1.70;;;;;;;;;;5115072;28;20300;-80
2024/01/24 10:45:05;;;;;;;5.43;1.92;;;;;;;;;;5114944;28;20193;-79
2024/01/24 10:47:33;;;;;;;5.40;1.77;;;;;;;;;;5114844;28;20204;-81
2024/01/24 10:50:03;;;;;;;3.55;1.60;;;;;;;;;;5114386;28;20205;-81
2024/01/24 10:52:31;;;;;;;5.82;2.10;;;;;;;;;;5114702;28;20280;-81
2024/01/24 10:55:01;;;;;;;6.65;1.80;;;;;;;;;;5114716;28;20200;-80
2024/01/24 10:57:30;;;;;;;4.55;1.75;;;;;;;;;;5114901;28;20229;-81
2024/01/24 10:59:57;;;;;;;6.00;1.65;;;;;;;;;;5114249;28;20205;-81
2024/01/24 11:02:26;;;;;;;5.80;1.60;;;;;;;;;;5114924;28;20284;-81
2024/01/24 11:04:54;;;;;;;7.32;2.10;;;;;;;;;;5113942;28;20732;-81
2024/01/24 11:07:26;;;;;;;5.63;1.65;;;;;;;;;;5114293;28;20289;-81
2024/01/24 11:09:58;;;;;;;6.85;1.80;;;;;;;;;;5114521;28;20204;-81
2024/01/24 11:12:25;;;;;;;5.88;1.77;;;;;;;;;;5113968;28;20573;-80
2024/01/24 11:14:52;;;;;;;5.07;1.67;;;;;;;;;;5114261;28;20225;-81
2024/01/24 11:17:19;;;;;;;6.95;1.67;;;;;;;;;;5113530;28;20645;-80
2024/01/24 11:19:49;;;;;;;3.40;1.30;;;;;;;;;;5113553;28;20607;-81
2024/01/24 11:22:24;;;;;;;7.00;1.48;;;;;;;;;;5114371;28;20240;-81
2024/01/24 11:24:53;;;;;;;4.45;1.50;;;;;;;;;;5114331;28;20221;-81
2024/01/24 11:27:28;;;;;;;4.00;1.60;;;;;;;;;;5114301;28;20197;-80
2024/01/24 11:29:55;;;;;;;4.28;1.30;;;;;;;;;;5114155;28;20189;-81
2024/01/24 11:32:41;;;;;;;5.82;1.70;;;;;;;;;;5113983;28;20194;-81
2024/01/24 11:35:29;;;;;;;6.57;1.60;;;;;;;;;;5114169;28;20238;-79
2024/01/24 11:37:56;;;;;;;6.57;1.63;;;;;;;;;;5113708;28;20320;-80
2024/01/24 11:40:24;;;;;;;5.72;1.55;;;;;;;;;;5114055;28;20218;-81
2024/01/24 11:42:54;;;;;;;7.90;1.50;;;;;;;;;;5113837;28;20193;-80
2024/01/24 11:45:22;;;;;;;4.97;1.60;;;;;;;;;;5113780;28;20198;-80
2024/01/24 11:47:50;;;;;;;4.47;1.35;;;;;;;;;;5113637;27;20577;-80
2024/01/24 11:50:17;;;;;;;8.15;1.35;;;;;;;;;;5113936;28;20254;-80
2024/01/24 11:52:46;;;;;;;4.75;1.45;;;;;;;;;;5113670;28;20197;-81
2024/01/24 11:55:13;;;;;;;4.25;1.50;;;;;;;;;;5113769;28;20221;-80
2024/01/24 11:57:41;;;;;;;6.43;1.52;;;;;;;;;;5113247;28;20760;-80
2024/01/24 12:00:09;;;;;;;4.53;1.45;;;;;;;;;;5113391;28;20292;-80
2024/01/24 12:02:36;;;;;;;5.75;1.70;;;;;;;;;;5112591;28;20198;-82
2024/01/24 12:05:05;;;;;;;6.45;1.48;;;;;;;;;;5109828;28;20289;-80
2024/01/24 12:07:32;;;;;;;4.43;1.60;;;;;;;;;;5113418;28;20285;-81
2024/01/24 12:10:01;;;;;;;5.60;1.80;;;;;;;;;;5115829;28;20198;-81
2024/01/24 12:12:29;;;;;;;8.32;1.98;;;;;;;;;;5114155;28;20225;-83
2024/01/24 12:14:56;;;;;;;7.03;2.60;;;;;;;;;;5113317;28;20198;-81
2024/01/24 12:17:24;;;;;;;8.13;2.05;;;;;;;;;;5112849;28;20765;-82
2024/01/24 12:19:52;;;;;;;10.35;2.70;;;;;;;;;;5113178;28;20194;-82
2024/01/24 12:22:21;;;;;;;7.55;2.83;;;;;;;;;;5112905;28;20198;-80
2024/01/24 12:24:49;;;;;;;10.05;2.75;;;;;;;;;;5112952;28;20194;-82
2024/01/24 12:27:17;;;;;;;6.80;2.72;;;;;;;;;;5112749;28;20208;-81
2024/01/24 12:29:44;;;;;;;7.70;2.70;;;;;;;;;;5113627;28;20194;-81
2024/01/24 12:32:11;;;;;;;7.72;2.28;;;;;;;;;;5112953;28;20193;-82
2024/01/24 12:34:39;;;;;;;5.55;2.17;;;;;;;;;;5112535;28;20200;-82
2024/01/24 12:37:06;;;;;;;6.43;2.05;;;;;;;;;;5110288;28;20304;-83
2024/01/24 12:39:34;;;;;;;7.22;2.55;;;;;;;;;;5113229;28;20254;-81
2024/01/24 12:42:02;;;;;;;8.07;2.85;;;;;;;;;;5112951;28;20193;-81
2024/01/24 12:44:30;;;;;;;6.78;2.35;;;;;;;;;;5112567;28;20193;-82
2024/01/24 12:46:58;;;;;;;5.35;2.42;;;;;;;;;;5112430;28;20225;-81
2024/01/24 12:49:26;;;;;;;6.93;2.40;;;;;;;;;;5112487;28;20200;-81
2024/01/24 12:51:53;;;;;;;3.83;1.95;;;;;;;;;;5112605;28;20200;-81
2024/01/24 12:54:20;;;;;;;5.45;2.08;;;;;;;;;;5112094;28;20212;-81
2024/01/24 12:56:48;;;;;;;7.47;3.42;;;;;;;;;;5112380;28;20824;-81
2024/01/24 12:59:15;;;;;;;5.32;2.75;;;;;;;;;;5122104;27;20212;-81
2024/01/24 13:01:44;;;;;;;4.65;1.92;;;;;;;;;;5129595;27;20661;-82
2024/01/24 13:04:11;;;;;;;4.63;1.83;;;;;;;;;;5110456;28;20233;-81
2024/01/24 13:06:40;;;;;;;4.35;1.90;;;;;;;;;;5110603;28;20258;-82
2024/01/24 13:09:08;;;;;;;3.85;1.48;;;;;;;;;;5108515;28;20216;-81
2024/01/24 13:11:35;;;;;;;4.22;1.45;;;;;;;;;;5111143;28;20202;-81
2024/01/24 13:14:02;;;;;;;3.25;1.40;;;;;;;;;;5104105;28;20213;-81
2024/01/24 13:16:29;;;;;;;5.75;1.85;;;;;;;;;;5111252;28;20230;-82
2024/01/24 13:18:58;;;;;;;5.03;1.75;;;;;;;;;;5110753;28;20654;-83
2024/01/24 13:21:25;;;;;;;4.63;1.30;;;;;;;;;;5110392;28;20220;-82
2024/01/24 13:23:52;;;;;;;3.38;1.40;;;;;;;;;;5104962;27;20198;-82
2024/01/24 13:26:20;;;;;;;4.43;1.60;;;;;;;;;;5091100;28;20248;-82
2024/01/24 13:28:47;;;;;;;4.75;1.52;;;;;;;;;;5107167;28;20719;-82
2024/01/24 13:31:14;;;;;;;4.68;1.58;;;;;;;;;;5091848;28;20697;-82
2024/01/24 13:33:44;;;;;;;4.53;1.55;;;;;;;;;;5108185;28;20201;-82
2024/01/24 13:36:12;;;;;;;4.72;1.50;;;;;;;;;;5107838;28;20209;-82
2024/01/24 13:38:40;;;;;;;4.70;1.60;;;;;;;;;;5098113;28;20229;-81
2024/01/24 13:41:07;;;;;;;4.68;2.13;;;;;;;;;;5105514;28;20205;-82
2024/01/24 13:43:34;;;;;;;5.00;2.17;;;;;;;;;;5092040;28;20655;-82
2024/01/24 13:46:02;;;;;;;6.03;2.17;;;;;;;;;;5095062;28;20639;-82
2024/01/24 13:48:29;;;;;;;6.70;1.50;;;;;;;;;;5091283;28;20224;-82
2024/01/24 13:50:57;;;;;;;8.77;2.10;;;;;;;;;;5104076;28;20767;-81
2024/01/24 13:53:25;;;;;;;5.47;1.58;;;;;;;;;;5111816;28;20633;-82
2024/01/24 13:55:53;;;;;;;3.47;1.63;;;;;;;;;;5101497;28;20202;-81
2024/01/24 13:58:20;;;;;;;3.53;1.67;;;;;;;;;;5097024;28;20321;-82
2024/01/24 14:00:48;;;;;;;4.15;1.58;;;;;;;;;;5111816;28;20197;-82
2024/01/24 14:03:15;;;;;;;4.18;1.50;;;;;;;;;;5104827;28;20201;-81
2024/01/24 14:05:42;;;;;;;7.50;1.83;;;;;;;;;;5106464;28;20280;-82
2024/01/24 14:08:09;;;;;;;6.10;2.40;;;;;;;;;;5111172;28;20292;-81
2024/01/24 14:10:38;;;;;;;4.50;2.40;;;;;;;;;;5111204;28;20230;-81
2024/01/24 14:13:05;;;;;;;5.68;2.30;;;;;;;;;;5109062;28;20267;-81
2024/01/24 14:15:32;;;;;;;7.93;2.80;;;;;;;;;;5107461;28;20295;-81
2024/01/24 14:18:02;;;;;;;4.25;2.20;;;;;;;;;;5110801;28;20257;-81
2024/01/24 14:20:29;;;;;;;3.42;1.77;;;;;;;;;;5111301;28;20201;-81
2024/01/24 14:22:56;;;;;;;2.75;1.42;;;;;;;;;;5111230;28;20281;-81
2024/01/24 14:25:23;;;;;;;3.85;1.70;;;;;;;;;;5111405;28;20200;-80
2024/01/24 14:27:52;;;;;;;2.83;1.60;;;;;;;;;;5110428;28;20583;-80
2024/01/24 14:30:19;;;;;;;4.80;2.17;;;;;;;;;;5110503;28;20348;-83
2024/01/24 14:32:46;;;;;;;5.57;1.70;;;;;;;;;;5111355;28;20262;-81
2024/01/24 14:35:16;;;;;;;2.67;1.30;;;;;;;;;;5111063;28;20225;-81
2024/01/24 14:37:43;;;;;;;3.15;1.70;;;;;;;;;;5110833;28;20228;-81
2024/01/24 14:40:11;;;;;;;2.03;1.55;;;;;;;;;;5111446;28;20678;-82
2024/01/24 14:42:40;;;;;;;3.97;2.03;;;;;;;;;;5109869;28;20206;-81
2024/01/24 14:45:09;;;;;;;4.20;2.40;;;;;;;;;;5110763;28;20190;-82